Time;durP1;ratioP1;P1;durP2;ratioP2;P2;SDS_P1;SDS_P2;PMS_P1;PMS_P2;Temp;Humidity;BMP_temperature;BMP_pressure;BME280_temperature;BME280_humidity;BME280_pressure;Samples;Min_cycle;Max_cycle;Signal;HPM_P1;HPM_P2
2023/05/14 00:01:27;;;;;;;12.38;11.70;;;;;;;;;;5025911;28;20518;-63
2023/05/14 00:03:52;;;;;;;12.02;11.43;;;;;;;;;;5027412;28;20056;-62
2023/05/14 00:06:18;;;;;;;12.15;11.55;;;;;;;;;;5026700;28;20029;-63
2023/05/14 00:08:43;;;;;;;11.68;11.13;;;;;;;;;;5029810;28;20477;-63
2023/05/14 00:11:08;;;;;;;12.55;11.85;;;;;;;;;;5021670;28;20033;-62
2023/05/14 00:13:34;;;;;;;12.05;11.45;;;;;;;;;;5018027;28;20018;-65
2023/05/14 00:16:00;;;;;;;11.80;11.20;;;;;;;;;;5021832;28;20022;-63
2023/05/14 00:18:25;;;;;;;12.70;12.00;;;;;;;;;;5025243;28;20393;-65
2023/05/14 00:20:53;;;;;;;11.90;11.30;;;;;;;;;;5027764;28;20404;-65
2023/05/14 00:23:19;;;;;;;12.60;11.90;;;;;;;;;;5029427;28;20018;-64
2023/05/14 00:25:46;;;;;;;12.85;12.15;;;;;;;;;;5027621;28;20026;-65
2023/05/14 00:28:11;;;;;;;11.98;11.38;;;;;;;;;;5030175;28;20025;-65
2023/05/14 00:30:36;;;;;;;12.10;11.50;;;;;;;;;;5028557;28;20028;-65
2023/05/14 00:33:02;;;;;;;12.30;11.68;;;;;;;;;;5027412;28;20043;-65
2023/05/14 00:35:27;;;;;;;12.50;11.80;;;;;;;;;;5042375;28;20171;-65
2023/05/14 00:37:54;;;;;;;12.10;11.50;;;;;;;;;;5025981;28;20079;-65
2023/05/14 00:40:19;;;;;;;11.82;11.23;;;;;;;;;;5030404;28;20034;-65
2023/05/14 00:42:45;;;;;;;11.65;11.07;;;;;;;;;;5028443;28;20044;-65
2023/05/14 00:45:10;;;;;;;12.38;11.73;;;;;;;;;;5030342;28;20021;-65
2023/05/14 00:47:38;;;;;;;11.88;11.27;;;;;;;;;;5031906;28;20030;-65
2023/05/14 00:50:03;;;;;;;11.80;11.20;;;;;;;;;;5027784;28;20020;-65
2023/05/14 00:52:28;;;;;;;11.75;11.15;;;;;;;;;;5029092;28;20022;-66
2023/05/14 00:54:54;;;;;;;12.52;11.82;;;;;;;;;;5030194;28;20469;-67
2023/05/14 00:57:20;;;;;;;11.80;11.20;;;;;;;;;;5031238;28;20390;-65
2023/05/14 00:59:46;;;;;;;11.90;11.30;;;;;;;;;;5030966;28;20025;-65
2023/05/14 01:02:11;;;;;;;11.02;10.52;;;;;;;;;;5035808;28;20120;-66
2023/05/14 01:04:37;;;;;;;11.30;10.80;;;;;;;;;;5029645;28;20022;-65
2023/05/14 01:07:21;;;;;;;11.60;11.00;;;;;;;;;;5026069;28;20021;-65
2023/05/14 01:09:56;;;;;;;12.02;11.43;;;;;;;;;;5034123;28;20025;-66
2023/05/14 01:12:41;;;;;;;11.57;10.98;;;;;;;;;;5026963;28;20544;-65
2023/05/14 01:15:09;;;;;;;11.40;10.90;;;;;;;;;;5020564;28;20113;-66
2023/05/14 01:17:37;;;;;;;12.07;11.48;;;;;;;;;;5021886;28;20021;-65
2023/05/14 01:20:03;;;;;;;12.38;11.75;;;;;;;;;;5036785;28;20037;-65
2023/05/14 01:22:28;;;;;;;12.52;11.85;;;;;;;;;;5030636;28;20029;-65
2023/05/14 01:24:53;;;;;;;12.88;12.18;;;;;;;;;;5030070;28;20064;-65
2023/05/14 01:27:28;;;;;;;13.07;12.38;;;;;;;;;;5026842;28;20032;-65
2023/05/14 01:30:05;;;;;;;13.00;12.30;;;;;;;;;;5024856;28;20543;-64
2023/05/14 01:32:33;;;;;;;13.90;13.07;;;;;;;;;;5024178;28;20029;-66
2023/05/14 01:34:59;;;;;;;11.95;11.35;;;;;;;;;;5024785;28;20390;-65
2023/05/14 01:37:26;;;;;;;13.48;12.68;;;;;;;;;;5033862;28;20044;-64
2023/05/14 01:39:52;;;;;;;12.77;12.07;;;;;;;;;;5030790;28;20024;-64
2023/05/14 01:42:17;;;;;;;12.88;12.18;;;;;;;;;;5025445;28;20427;-65
2023/05/14 01:44:42;;;;;;;12.10;11.50;;;;;;;;;;5023056;28;20405;-65
2023/05/14 01:47:08;;;;;;;12.23;11.63;;;;;;;;;;5032120;28;20025;-64
2023/05/14 01:49:33;;;;;;;12.60;11.90;;;;;;;;;;5037202;28;20018;-64
2023/05/14 01:51:58;;;;;;;12.50;11.88;;;;;;;;;;5029449;28;20029;-65
2023/05/14 01:54:24;;;;;;;12.40;11.80;;;;;;;;;;5022223;28;20084;-65
2023/05/14 01:56:50;;;;;;;12.52;11.88;;;;;;;;;;5032214;28;20064;-64
2023/05/14 01:59:15;;;;;;;12.20;11.60;;;;;;;;;;5031358;28;20026;-65
2023/05/14 02:01:41;;;;;;;12.63;11.95;;;;;;;;;;5029272;28;20112;-65
2023/05/14 02:04:06;;;;;;;12.30;11.70;;;;;;;;;;5033412;28;20033;-65
2023/05/14 02:06:32;;;;;;;12.20;11.60;;;;;;;;;;5031771;28;20021;-64
2023/05/14 02:08:57;;;;;;;13.05;12.35;;;;;;;;;;5029480;28;20073;-64
2023/05/14 02:11:23;;;;;;;13.18;12.45;;;;;;;;;;5032701;28;20025;-64
2023/05/14 02:13:48;;;;;;;12.77;12.07;;;;;;;;;;5023932;28;20099;-65
2023/05/14 02:16:13;;;;;;;12.68;11.98;;;;;;;;;;5028476;28;20024;-65
2023/05/14 02:18:38;;;;;;;12.00;11.40;;;;;;;;;;5031973;28;20060;-65
2023/05/14 02:21:04;;;;;;;12.20;11.60;;;;;;;;;;5031395;28;20100;-64
2023/05/14 02:23:29;;;;;;;12.30;11.70;;;;;;;;;;5034875;28;20048;-64
2023/05/14 02:25:54;;;;;;;12.63;11.93;;;;;;;;;;5029885;28;20029;-65
2023/05/14 02:28:20;;;;;;;12.68;11.98;;;;;;;;;;5028487;28;20021;-65
2023/05/14 02:30:45;;;;;;;12.40;11.80;;;;;;;;;;5028904;28;20036;-65
2023/05/14 02:33:10;;;;;;;12.27;11.68;;;;;;;;;;5025482;28;20076;-65
2023/05/14 02:35:36;;;;;;;12.68;11.98;;;;;;;;;;5028017;28;20025;-65
2023/05/14 02:38:01;;;;;;;12.48;11.88;;;;;;;;;;5036047;28;20026;-64
2023/05/14 02:40:27;;;;;;;12.75;12.05;;;;;;;;;;5026253;28;20029;-65
2023/05/14 02:42:52;;;;;;;11.95;11.35;;;;;;;;;;5031345;28;20052;-64
2023/05/14 02:45:20;;;;;;;11.82;11.23;;;;;;;;;;5032636;28;20017;-66
2023/05/14 02:47:45;;;;;;;11.77;11.18;;;;;;;;;;5033553;28;20061;-65
2023/05/14 02:50:11;;;;;;;11.90;11.30;;;;;;;;;;5038701;28;20041;-65
2023/05/14 02:52:36;;;;;;;12.13;11.52;;;;;;;;;;5026498;28;20048;-65
2023/05/14 02:55:01;;;;;;;12.48;11.80;;;;;;;;;;5036088;28;20029;-65
2023/05/14 02:57:27;;;;;;;13.25;12.50;;;;;;;;;;5034574;28;20025;-64
2023/05/14 02:59:52;;;;;;;11.88;11.27;;;;;;;;;;5031002;28;20029;-64
2023/05/14 03:02:17;;;;;;;11.98;11.38;;;;;;;;;;5031591;28;20045;-66
2023/05/14 03:04:43;;;;;;;12.43;11.73;;;;;;;;;;5029015;28;20041;-65
2023/05/14 03:07:08;;;;;;;11.77;11.18;;;;;;;;;;5020717;28;20044;-65
2023/05/14 03:09:33;;;;;;;12.02;11.43;;;;;;;;;;5026995;28;20025;-65
2023/05/14 03:11:59;;;;;;;10.98;10.48;;;;;;;;;;5035401;28;20029;-65
2023/05/14 03:14:24;;;;;;;11.93;11.32;;;;;;;;;;5029743;28;20448;-65
2023/05/14 03:16:49;;;;;;;11.43;10.88;;;;;;;;;;5026814;28;20421;-65
2023/05/14 03:19:14;;;;;;;11.70;11.10;;;;;;;;;;5026888;28;20035;-66
2023/05/14 03:21:40;;;;;;;11.70;11.10;;;;;;;;;;5031954;28;20056;-65
2023/05/14 03:24:05;;;;;;;12.05;11.45;;;;;;;;;;5030043;28;20025;-65
2023/05/14 03:26:31;;;;;;;12.30;11.70;;;;;;;;;;5031683;28;20669;-66
2023/05/14 03:28:56;;;;;;;11.68;11.10;;;;;;;;;;5030790;28;20104;-65
2023/05/14 03:31:21;;;;;;;12.00;11.40;;;;;;;;;;5023688;28;20057;-65
2023/05/14 03:33:47;;;;;;;11.77;11.18;;;;;;;;;;5034171;28;20056;-66
2023/05/14 03:36:12;;;;;;;11.43;10.93;;;;;;;;;;5026392;28;20080;-64
2023/05/14 03:38:37;;;;;;;11.98;11.38;;;;;;;;;;5021674;28;20026;-65
2023/05/14 03:41:02;;;;;;;11.38;10.88;;;;;;;;;;5037025;28;20389;-65
2023/05/14 03:43:28;;;;;;;12.20;11.60;;;;;;;;;;5030348;28;20026;-65
2023/05/14 03:45:53;;;;;;;12.07;11.48;;;;;;;;;;5036242;28;20370;-66
2023/05/14 03:48:19;;;;;;;12.32;11.73;;;;;;;;;;5028694;28;20029;-65
2023/05/14 03:50:44;;;;;;;11.65;11.15;;;;;;;;;;5036607;28;20039;-66
2023/05/14 03:53:10;;;;;;;12.45;11.85;;;;;;;;;;5019907;28;20017;-65
2023/05/14 03:55:35;;;;;;;11.80;11.30;;;;;;;;;;5026222;28;20033;-66
2023/05/14 03:58:02;;;;;;;11.73;11.23;;;;;;;;;;5025427;28;20083;-66
2023/05/14 04:00:27;;;;;;;12.10;11.50;;;;;;;;;;5024859;28;20037;-66
2023/05/14 04:02:53;;;;;;;11.77;11.27;;;;;;;;;;5032267;28;20408;-67
2023/05/14 04:05:18;;;;;;;12.45;11.85;;;;;;;;;;5028227;28;20523;-66
2023/05/14 04:07:44;;;;;;;11.77;11.27;;;;;;;;;;5028953;28;20657;-66
2023/05/14 04:10:10;;;;;;;11.60;11.10;;;;;;;;;;5025409;28;20705;-66
2023/05/14 04:12:35;;;;;;;11.90;11.40;;;;;;;;;;5022774;28;20033;-66
2023/05/14 04:15:01;;;;;;;12.23;11.63;;;;;;;;;;5030456;28;20109;-67
2023/05/14 04:17:26;;;;;;;12.15;11.63;;;;;;;;;;5026128;28;20622;-66
2023/05/14 04:19:52;;;;;;;12.25;11.65;;;;;;;;;;5034637;28;20488;-65
2023/05/14 04:22:17;;;;;;;11.90;11.40;;;;;;;;;;5022665;28;20021;-65
2023/05/14 04:24:42;;;;;;;11.68;11.18;;;;;;;;;;5022262;28;20112;-66
2023/05/14 04:27:08;;;;;;;11.77;11.27;;;;;;;;;;5020235;28;20029;-65
2023/05/14 04:29:33;;;;;;;11.70;11.20;;;;;;;;;;5028988;28;20026;-65
2023/05/14 04:31:59;;;;;;;11.95;11.45;;;;;;;;;;5027753;28;20026;-65
2023/05/14 04:34:25;;;;;;;12.00;11.50;;;;;;;;;;5029983;28;20385;-64
2023/05/14 04:36:50;;;;;;;11.85;11.35;;;;;;;;;;5030615;28;20006;-66
2023/05/14 04:39:16;;;;;;;12.07;11.57;;;;;;;;;;5027605;28;20021;-65
2023/05/14 04:41:42;;;;;;;11.80;11.30;;;;;;;;;;5021330;28;20022;-66
2023/05/14 04:44:08;;;;;;;11.65;11.15;;;;;;;;;;5028529;28;20030;-66
2023/05/14 04:46:33;;;;;;;12.47;11.87;;;;;;;;;;5057495;28;20433;-66
2023/05/14 04:48:58;;;;;;;12.03;11.53;;;;;;;;;;5022257;28;20305;-66
2023/05/14 04:51:23;;;;;;;12.20;11.70;;;;;;;;;;5025888;28;20743;-66
2023/05/14 04:53:49;;;;;;;12.45;11.85;;;;;;;;;;5026909;28;20275;-66
2023/05/14 04:56:15;;;;;;;12.27;11.75;;;;;;;;;;5058773;28;20026;-66
2023/05/14 04:58:40;;;;;;;11.87;11.37;;;;;;;;;;5028033;28;20120;-66
2023/05/14 05:01:06;;;;;;;11.93;11.43;;;;;;;;;;5027708;28;20305;-66
2023/05/14 05:03:31;;;;;;;12.07;11.57;;;;;;;;;;5030443;28;20521;-66
2023/05/14 05:05:56;;;;;;;12.05;11.55;;;;;;;;;;5028139;28;20030;-66
2023/05/14 05:08:22;;;;;;;12.00;11.50;;;;;;;;;;5032644;28;20042;-66
2023/05/14 05:10:47;;;;;;;12.00;11.50;;;;;;;;;;5029466;28;20587;-65
2023/05/14 05:13:14;;;;;;;12.60;12.00;;;;;;;;;;5032042;28;20023;-64
2023/05/14 05:15:39;;;;;;;12.57;11.98;;;;;;;;;;5032135;28;20034;-65
2023/05/14 05:18:05;;;;;;;12.07;11.57;;;;;;;;;;5040044;28;20481;-66
2023/05/14 05:20:31;;;;;;;12.20;11.70;;;;;;;;;;5032048;28;20281;-66
2023/05/14 05:22:56;;;;;;;12.10;11.60;;;;;;;;;;5032271;28;20030;-66
2023/05/14 05:25:21;;;;;;;12.50;11.93;;;;;;;;;;5032680;28;20039;-65
2023/05/14 05:27:47;;;;;;;12.05;11.55;;;;;;;;;;5024543;28;20017;-65
2023/05/14 05:30:12;;;;;;;11.98;11.48;;;;;;;;;;5031495;28;20112;-66
2023/05/14 05:32:37;;;;;;;12.20;11.70;;;;;;;;;;5029236;28;20057;-67
2023/05/14 05:35:03;;;;;;;12.10;11.60;;;;;;;;;;5031152;28;20037;-66
2023/05/14 05:37:29;;;;;;;12.40;11.85;;;;;;;;;;5029855;28;20053;-66
2023/05/14 05:39:54;;;;;;;12.50;11.93;;;;;;;;;;5030819;28;20021;-66
2023/05/14 05:42:20;;;;;;;12.30;11.80;;;;;;;;;;5024918;28;20022;-66
2023/05/14 05:44:45;;;;;;;12.32;11.82;;;;;;;;;;5026722;28;20275;-66
2023/05/14 05:47:11;;;;;;;12.27;11.77;;;;;;;;;;5027300;28;20101;-65
2023/05/14 05:49:36;;;;;;;12.05;11.55;;;;;;;;;;5027729;28;20271;-63
2023/05/14 05:52:02;;;;;;;12.03;11.53;;;;;;;;;;5041566;28;20025;-64
2023/05/14 05:54:27;;;;;;;12.23;11.73;;;;;;;;;;5026849;28;20275;-63
2023/05/14 05:56:52;;;;;;;11.93;11.43;;;;;;;;;;5028083;28;20024;-64
2023/05/14 05:59:18;;;;;;;12.70;12.10;;;;;;;;;;5030859;28;20270;-64
2023/05/14 06:01:43;;;;;;;12.33;11.80;;;;;;;;;;5035851;28;20306;-65
2023/05/14 06:04:08;;;;;;;12.67;12.07;;;;;;;;;;5035368;28;20106;-64
2023/05/14 06:06:34;;;;;;;12.55;11.95;;;;;;;;;;5029730;28;20302;-64
2023/05/14 06:09:00;;;;;;;12.40;11.90;;;;;;;;;;5026974;28;20048;-64
2023/05/14 06:11:26;;;;;;;12.23;11.73;;;;;;;;;;5029368;28;20018;-64
2023/05/14 06:13:51;;;;;;;12.23;11.73;;;;;;;;;;5030421;28;20048;-63
2023/05/14 06:16:16;;;;;;;12.50;11.90;;;;;;;;;;5029488;28;20029;-63
2023/05/14 06:18:42;;;;;;;12.25;11.75;;;;;;;;;;5021662;28;20278;-65
2023/05/14 06:21:07;;;;;;;12.23;11.73;;;;;;;;;;5028360;28;20080;-64
2023/05/14 06:23:32;;;;;;;12.00;11.50;;;;;;;;;;5026621;28;20274;-63
2023/05/14 06:25:57;;;;;;;12.10;11.60;;;;;;;;;;5029295;28;20052;-64
2023/05/14 06:28:23;;;;;;;12.80;12.20;;;;;;;;;;5026703;28;20025;-64
2023/05/14 06:30:49;;;;;;;12.70;12.10;;;;;;;;;;5031963;28;20259;-64
2023/05/14 06:33:14;;;;;;;12.20;11.70;;;;;;;;;;5029429;28;20032;-63
2023/05/14 06:35:40;;;;;;;12.35;11.82;;;;;;;;;;5030862;28;20641;-63
2023/05/14 06:38:05;;;;;;;12.57;11.98;;;;;;;;;;5033320;28;20017;-63
2023/05/14 06:40:30;;;;;;;12.30;11.80;;;;;;;;;;5031679;28;20032;-64
2023/05/14 06:42:56;;;;;;;12.25;11.75;;;;;;;;;;5033036;28;20255;-63
2023/05/14 06:45:21;;;;;;;12.70;12.10;;;;;;;;;;5031762;28;20025;-64
2023/05/14 06:47:46;;;;;;;12.67;12.07;;;;;;;;;;5030488;28;20286;-63
2023/05/14 06:50:12;;;;;;;12.50;11.90;;;;;;;;;;5031669;28;20048;-62
2023/05/14 06:52:37;;;;;;;12.53;11.93;;;;;;;;;;5031056;28;20017;-63
2023/05/14 06:55:03;;;;;;;12.57;11.98;;;;;;;;;;5028927;28;20463;-64
2023/05/14 06:57:28;;;;;;;12.50;11.90;;;;;;;;;;5035664;28;20091;-62
2023/05/14 06:59:53;;;;;;;12.05;11.55;;;;;;;;;;5032950;28;20013;-62
2023/05/14 07:02:19;;;;;;;12.07;11.57;;;;;;;;;;5027435;28;20041;-62
2023/05/14 07:04:44;;;;;;;12.77;12.17;;;;;;;;;;5029165;28;20393;-63
2023/05/14 07:07:14;;;;;;;12.88;12.27;;;;;;;;;;5035185;28;20025;-65
2023/05/14 07:09:39;;;;;;;12.52;11.93;;;;;;;;;;5037360;28;20033;-63
2023/05/14 07:12:04;;;;;;;12.60;12.00;;;;;;;;;;5027261;28;20406;-63
2023/05/14 07:14:30;;;;;;;13.25;12.65;;;;;;;;;;5032934;28;20382;-63
2023/05/14 07:16:56;;;;;;;12.73;12.13;;;;;;;;;;5029572;28;20018;-63
2023/05/14 07:19:21;;;;;;;13.18;12.57;;;;;;;;;;5031037;28;20029;-63
2023/05/14 07:21:46;;;;;;;12.60;12.00;;;;;;;;;;5033449;28;20014;-62
2023/05/14 07:24:11;;;;;;;12.93;12.33;;;;;;;;;;5028610;28;21348;-63
2023/05/14 07:26:38;;;;;;;13.20;12.60;;;;;;;;;;5031741;28;20254;-63
2023/05/14 07:29:03;;;;;;;12.68;12.07;;;;;;;;;;5021707;28;20281;-62
2023/05/14 07:31:28;;;;;;;12.52;11.93;;;;;;;;;;5034520;28;20405;-64
2023/05/14 07:33:53;;;;;;;13.13;12.53;;;;;;;;;;5033454;28;20028;-62
2023/05/14 07:36:19;;;;;;;13.03;12.43;;;;;;;;;;5027863;28;20025;-63
2023/05/14 07:38:44;;;;;;;12.93;12.32;;;;;;;;;;5028793;28;20301;-63
2023/05/14 07:41:11;;;;;;;12.65;12.05;;;;;;;;;;5023318;28;20080;-65
2023/05/14 07:43:37;;;;;;;12.80;12.20;;;;;;;;;;5025257;28;20038;-65
2023/05/14 07:46:03;;;;;;;12.77;12.18;;;;;;;;;;5030590;28;20516;-64
2023/05/14 07:48:28;;;;;;;13.30;12.70;;;;;;;;;;5030010;28;20071;-65
2023/05/14 07:50:53;;;;;;;12.82;12.23;;;;;;;;;;5025305;28;20037;-65
2023/05/14 07:53:19;;;;;;;13.17;12.57;;;;;;;;;;5020448;28;20027;-64
2023/05/14 07:55:46;;;;;;;13.10;12.50;;;;;;;;;;5028829;28;20352;-65
2023/05/14 07:58:12;;;;;;;13.07;12.48;;;;;;;;;;5025374;28;20029;-63
2023/05/14 08:00:37;;;;;;;12.70;12.10;;;;;;;;;;5027245;28;20452;-64
2023/05/14 08:03:02;;;;;;;12.60;12.00;;;;;;;;;;5022002;28;20839;-64
2023/05/14 08:05:28;;;;;;;13.83;13.13;;;;;;;;;;5026444;28;20025;-64
2023/05/14 08:07:53;;;;;;;12.90;12.30;;;;;;;;;;5024159;28;20305;-63
2023/05/14 08:10:19;;;;;;;13.07;12.48;;;;;;;;;;5034802;28;20071;-64
2023/05/14 08:12:44;;;;;;;13.20;12.57;;;;;;;;;;5027639;28;20033;-65
2023/05/14 08:15:10;;;;;;;13.90;13.20;;;;;;;;;;5026412;28;20053;-64
2023/05/14 08:17:35;;;;;;;13.80;13.10;;;;;;;;;;5023122;28;20068;-64
2023/05/14 08:20:01;;;;;;;14.57;13.77;;;;;;;;;;5022943;28;20018;-65
2023/05/14 08:22:27;;;;;;;13.90;13.20;;;;;;;;;;5023438;28;20057;-64
2023/05/14 08:24:52;;;;;;;13.75;13.05;;;;;;;;;;5027847;28;20034;-64
2023/05/14 08:27:17;;;;;;;14.32;13.57;;;;;;;;;;5031855;28;20071;-64
2023/05/14 08:29:43;;;;;;;13.23;12.63;;;;;;;;;;5031674;28;20029;-64
2023/05/14 08:32:08;;;;;;;14.57;13.77;;;;;;;;;;5022620;28;20026;-63
2023/05/14 08:34:33;;;;;;;14.95;14.15;;;;;;;;;;5027258;28;20289;-63
2023/05/14 08:36:59;;;;;;;14.20;13.50;;;;;;;;;;5031244;28;20382;-63
2023/05/14 08:39:24;;;;;;;14.88;14.07;;;;;;;;;;5027893;28;20047;-64
2023/05/14 08:41:50;;;;;;;12.93;12.32;;;;;;;;;;5029757;28;20068;-65
2023/05/14 08:44:19;;;;;;;13.10;12.50;;;;;;;;;;5029203;28;20074;-64
2023/05/14 08:46:44;;;;;;;13.32;12.63;;;;;;;;;;5024096;28;20670;-64
2023/05/14 08:49:28;;;;;;;13.27;12.57;;;;;;;;;;5024218;28;20053;-65
2023/05/14 08:51:53;;;;;;;13.20;12.60;;;;;;;;;;5030576;28;20048;-64
2023/05/14 08:54:22;;;;;;;13.57;12.88;;;;;;;;;;5028339;28;20481;-65
2023/05/14 08:56:48;;;;;;;13.60;12.90;;;;;;;;;;5022737;28;20021;-64
2023/05/14 08:59:13;;;;;;;13.02;12.43;;;;;;;;;;5031537;28;20032;-64
2023/05/14 09:01:42;;;;;;;13.20;12.60;;;;;;;;;;5034301;28;20044;-64
2023/05/14 09:04:08;;;;;;;13.65;12.95;;;;;;;;;;5026771;28;20056;-64
2023/05/14 09:06:36;;;;;;;15.30;14.48;;;;;;;;;;5031747;28;20029;-65
2023/05/14 09:09:02;;;;;;;13.27;12.65;;;;;;;;;;5027073;28;20508;-63
2023/05/14 09:11:27;;;;;;;13.93;13.23;;;;;;;;;;5029237;28;20104;-64
2023/05/14 09:13:53;;;;;;;14.05;13.35;;;;;;;;;;5027904;28;20441;-63
2023/05/14 09:16:19;;;;;;;13.10;12.50;;;;;;;;;;5019156;28;20535;-64
2023/05/14 09:18:44;;;;;;;13.52;12.82;;;;;;;;;;5028606;28;20120;-63
2023/05/14 09:21:12;;;;;;;13.57;12.88;;;;;;;;;;5024979;28;20448;-62
2023/05/14 09:23:40;;;;;;;12.77;12.18;;;;;;;;;;5024118;28;20114;-67
2023/05/14 09:26:05;;;;;;;12.60;12.00;;;;;;;;;;5029381;28;20047;-69
2023/05/14 09:28:31;;;;;;;13.43;12.73;;;;;;;;;;5024282;28;20049;-69
2023/05/14 09:30:56;;;;;;;12.95;12.35;;;;;;;;;;5027396;28;20439;-68
2023/05/14 09:33:25;;;;;;;13.18;12.55;;;;;;;;;;5026760;28;20101;-69
2023/05/14 09:35:50;;;;;;;13.55;12.85;;;;;;;;;;5024931;28;20147;-68
2023/05/14 09:38:16;;;;;;;13.27;12.57;;;;;;;;;;5033611;28;20474;-68
2023/05/14 09:40:41;;;;;;;13.65;12.95;;;;;;;;;;5026101;28;20266;-68
2023/05/14 09:43:07;;;;;;;13.27;12.57;;;;;;;;;;5029028;28;20132;-69
2023/05/14 09:45:33;;;;;;;14.18;13.48;;;;;;;;;;5024185;28;20017;-68
2023/05/14 09:47:59;;;;;;;13.65;12.95;;;;;;;;;;5027444;28;20017;-68
2023/05/14 09:50:25;;;;;;;14.45;13.65;;;;;;;;;;5026130;28;20370;-67
2023/05/14 09:52:50;;;;;;;13.60;12.90;;;;;;;;;;5020585;28;20040;-61
2023/05/14 09:55:16;;;;;;;12.82;12.23;;;;;;;;;;5031790;28;20076;-62
2023/05/14 09:57:41;;;;;;;12.68;12.07;;;;;;;;;;5035961;28;20051;-65
2023/05/14 10:00:08;;;;;;;13.15;12.55;;;;;;;;;;5035612;28;20018;-63
2023/05/14 10:02:36;;;;;;;13.90;13.18;;;;;;;;;;5028119;28;20057;-66
2023/05/14 10:05:02;;;;;;;14.80;14.00;;;;;;;;;;5027764;28;20112;-66
2023/05/14 10:07:31;;;;;;;12.77;12.18;;;;;;;;;;5031611;28;20030;-66
2023/05/14 10:09:58;;;;;;;13.90;13.20;;;;;;;;;;5033620;28;20028;-66
2023/05/14 10:12:25;;;;;;;14.15;13.45;;;;;;;;;;5033495;28;20030;-66
2023/05/14 10:14:52;;;;;;;13.07;12.48;;;;;;;;;;5030965;28;20096;-66
2023/05/14 10:17:21;;;;;;;14.18;13.48;;;;;;;;;;5023394;28;20036;-67
2023/05/14 10:19:52;;;;;;;13.55;12.85;;;;;;;;;;5037582;28;20006;-65
2023/05/14 10:22:21;;;;;;;13.18;12.55;;;;;;;;;;5023883;28;20477;-65
2023/05/14 10:24:47;;;;;;;13.65;12.95;;;;;;;;;;5033553;28;20032;-66
2023/05/14 10:27:14;;;;;;;12.65;12.05;;;;;;;;;;5033905;28;20105;-66
2023/05/14 10:29:40;;;;;;;12.85;12.25;;;;;;;;;;5034663;28;20029;-65
2023/05/14 10:32:07;;;;;;;13.77;13.07;;;;;;;;;;5031453;28;20384;-65
2023/05/14 10:34:37;;;;;;;12.60;12.00;;;;;;;;;;5028872;28;20040;-66
2023/05/14 10:37:09;;;;;;;13.70;13.00;;;;;;;;;;5036968;28;20116;-65
2023/05/14 10:39:45;;;;;;;13.15;12.48;;;;;;;;;;5030840;28;20029;-65
2023/05/14 10:42:20;;;;;;;12.23;11.63;;;;;;;;;;5031604;28;20040;-66
2023/05/14 10:45:07;;;;;;;13.05;12.43;;;;;;;;;;5030935;28;20091;-66
2023/05/14 10:47:33;;;;;;;13.57;12.88;;;;;;;;;;5023345;28;20037;-66
2023/05/14 10:50:02;;;;;;;13.35;12.65;;;;;;;;;;5036327;28;20014;-66
2023/05/14 10:52:27;;;;;;;13.98;13.27;;;;;;;;;;5030382;28;20056;-65
2023/05/14 10:54:54;;;;;;;13.05;12.45;;;;;;;;;;5035594;28;20484;-69
2023/05/14 10:57:20;;;;;;;13.60;12.90;;;;;;;;;;5028813;28;20013;-66
2023/05/14 10:59:46;;;;;;;13.30;12.60;;;;;;;;;;5023895;28;20504;-65
2023/05/14 11:02:25;;;;;;;12.80;12.20;;;;;;;;;;5030080;28;20050;-65
2023/05/14 11:04:53;;;;;;;13.50;12.80;;;;;;;;;;5028007;28;20388;-66
2023/05/14 11:07:22;;;;;;;13.20;12.55;;;;;;;;;;5031730;28;20366;-65
2023/05/14 11:09:47;;;;;;;13.57;12.88;;;;;;;;;;5032023;28;20029;-67
2023/05/14 11:12:12;;;;;;;13.75;13.05;;;;;;;;;;5030702;28;20033;-65
2023/05/14 11:14:38;;;;;;;13.60;12.90;;;;;;;;;;5036719;28;20109;-66
2023/05/14 11:17:04;;;;;;;13.60;12.90;;;;;;;;;;5030218;28;20049;-66
2023/05/14 11:19:29;;;;;;;13.30;12.60;;;;;;;;;;5031433;28;20022;-68
2023/05/14 11:21:55;;;;;;;13.38;12.68;;;;;;;;;;5028796;28;20018;-66
2023/05/14 11:24:21;;;;;;;13.20;12.50;;;;;;;;;;5033421;28;20018;-66
2023/05/14 11:26:46;;;;;;;13.07;12.48;;;;;;;;;;5030605;28;20041;-67
2023/05/14 11:29:11;;;;;;;13.40;12.70;;;;;;;;;;5021956;28;20021;-65
2023/05/14 11:31:37;;;;;;;13.90;13.20;;;;;;;;;;5030368;28;20037;-65
2023/05/14 11:34:04;;;;;;;13.85;13.15;;;;;;;;;;5027010;28;20053;-66
2023/05/14 11:36:30;;;;;;;13.40;12.70;;;;;;;;;;5034376;28;20032;-65
2023/05/14 11:38:55;;;;;;;13.70;13.00;;;;;;;;;;5029315;28;20025;-65
2023/05/14 11:41:21;;;;;;;13.55;12.85;;;;;;;;;;5027351;28;20100;-66
2023/05/14 11:43:47;;;;;;;13.75;13.05;;;;;;;;;;5028203;28;20018;-66
2023/05/14 11:46:17;;;;;;;13.38;12.68;;;;;;;;;;5028879;28;20029;-66
2023/05/14 11:48:42;;;;;;;13.20;12.50;;;;;;;;;;5026566;28;20056;-66
2023/05/14 11:51:07;;;;;;;12.77;12.18;;;;;;;;;;5026678;28;20485;-66
2023/05/14 11:53:33;;;;;;;13.70;13.00;;;;;;;;;;5025352;28;20060;-66
2023/05/14 11:55:58;;;;;;;13.20;12.50;;;;;;;;;;5030015;28;20462;-66
2023/05/14 11:58:24;;;;;;;13.35;12.65;;;;;;;;;;5030271;28;20047;-66
2023/05/14 12:00:50;;;;;;;13.27;12.57;;;;;;;;;;5027282;28;20025;-66
2023/05/14 12:03:21;;;;;;;12.90;12.30;;;;;;;;;;5029448;28;20428;-65
2023/05/14 12:06:00;;;;;;;12.93;12.32;;;;;;;;;;5026781;28;20026;-65
2023/05/14 12:08:26;;;;;;;13.05;12.38;;;;;;;;;;5021431;28;20017;-67
2023/05/14 12:10:52;;;;;;;13.77;13.07;;;;;;;;;;5029242;28;20307;-66
2023/05/14 12:13:17;;;;;;;13.20;12.52;;;;;;;;;;5020757;28;20060;-66
2023/05/14 12:16:01;;;;;;;13.73;13.02;;;;;;;;;;5022912;28;20083;-66
2023/05/14 12:18:27;;;;;;;12.60;12.00;;;;;;;;;;5031515;28;20043;-65
2023/05/14 12:20:53;;;;;;;13.70;13.00;;;;;;;;;;5025910;28;20101;-66
2023/05/14 12:23:44;;;;;;;13.25;12.55;;;;;;;;;;5026845;28;20025;-65
2023/05/14 12:26:11;;;;;;;12.57;11.98;;;;;;;;;;5028921;28;20032;-66
2023/05/14 12:28:37;;;;;;;12.35;11.75;;;;;;;;;;5032094;28;20038;-66
2023/05/14 12:31:03;;;;;;;13.35;12.65;;;;;;;;;;5030893;28;20454;-65
2023/05/14 12:33:28;;;;;;;13.05;12.45;;;;;;;;;;5026985;28;20044;-66
2023/05/14 12:35:56;;;;;;;13.03;12.43;;;;;;;;;;5027431;28;20021;-67
2023/05/14 12:38:21;;;;;;;13.15;12.50;;;;;;;;;;5029245;28;20286;-66
2023/05/14 12:40:46;;;;;;;13.73;13.02;;;;;;;;;;5027089;28;20018;-67
2023/05/14 12:43:12;;;;;;;12.73;12.13;;;;;;;;;;5023529;28;20381;-65
2023/05/14 12:45:37;;;;;;;13.27;12.57;;;;;;;;;;5028456;28;20105;-65
2023/05/14 12:48:02;;;;;;;13.07;12.43;;;;;;;;;;5029221;28;20026;-65
2023/05/14 12:50:28;;;;;;;13.45;12.75;;;;;;;;;;5028202;28;20026;-65
2023/05/14 12:52:53;;;;;;;13.15;12.50;;;;;;;;;;5034638;28;20052;-65
2023/05/14 12:55:18;;;;;;;13.05;12.35;;;;;;;;;;5028081;28;20025;-65
2023/05/14 12:57:44;;;;;;;13.38;12.68;;;;;;;;;;5028996;28;20025;-65
2023/05/14 13:00:10;;;;;;;12.50;11.90;;;;;;;;;;5026258;28;20481;-65
2023/05/14 13:02:35;;;;;;;12.82;12.23;;;;;;;;;;5031725;28;20532;-65
2023/05/14 13:05:05;;;;;;;12.90;12.30;;;;;;;;;;5032928;28;20029;-66
2023/05/14 13:07:30;;;;;;;13.70;13.00;;;;;;;;;;5023150;28;20160;-65
2023/05/14 13:09:56;;;;;;;13.25;12.55;;;;;;;;;;5030865;28;20080;-65
2023/05/14 13:12:22;;;;;;;14.02;13.32;;;;;;;;;;5033925;28;20032;-66
2023/05/14 13:14:47;;;;;;;12.57;11.98;;;;;;;;;;5024621;28;20018;-66
2023/05/14 13:17:13;;;;;;;13.40;12.70;;;;;;;;;;5028543;28;20021;-66
2023/05/14 13:19:38;;;;;;;13.40;12.70;;;;;;;;;;5032019;28;20512;-65
2023/05/14 13:22:03;;;;;;;13.10;12.40;;;;;;;;;;5024184;28;20013;-66
2023/05/14 13:24:29;;;;;;;12.77;12.18;;;;;;;;;;5036019;28;20258;-66
2023/05/14 13:26:55;;;;;;;12.63;12.02;;;;;;;;;;5025320;28;20406;-66
2023/05/14 13:29:20;;;;;;;12.80;12.20;;;;;;;;;;5035499;28;20411;-66
2023/05/14 13:31:46;;;;;;;12.52;11.93;;;;;;;;;;5038009;28;20080;-66
2023/05/14 13:34:11;;;;;;;12.70;12.10;;;;;;;;;;5025656;28;20112;-66
2023/05/14 13:36:38;;;;;;;12.68;12.07;;;;;;;;;;5030455;28;20033;-66
2023/05/14 13:39:06;;;;;;;12.77;12.18;;;;;;;;;;5035058;28;20032;-66
2023/05/14 13:41:36;;;;;;;12.65;12.05;;;;;;;;;;5031205;28;20451;-66
2023/05/14 13:44:02;;;;;;;13.05;12.40;;;;;;;;;;5035320;28;20015;-66
2023/05/14 13:46:27;;;;;;;13.40;12.70;;;;;;;;;;5035252;28;20025;-66
2023/05/14 13:48:52;;;;;;;12.85;12.25;;;;;;;;;;5030320;28;20021;-66
2023/05/14 13:51:18;;;;;;;12.38;11.77;;;;;;;;;;5023407;28;20053;-66
2023/05/14 13:53:43;;;;;;;12.52;11.93;;;;;;;;;;5031940;28;20036;-65
2023/05/14 13:56:08;;;;;;;12.85;12.25;;;;;;;;;;5030350;28;20041;-66
2023/05/14 13:58:34;;;;;;;12.30;11.70;;;;;;;;;;5032795;28;20032;-66
2023/05/14 14:00:59;;;;;;;12.70;12.10;;;;;;;;;;5030830;28;20021;-66
2023/05/14 14:03:24;;;;;;;13.32;12.63;;;;;;;;;;5024289;28;20050;-66
2023/05/14 14:05:51;;;;;;;13.77;13.07;;;;;;;;;;5026582;28;20013;-65
2023/05/14 14:08:16;;;;;;;14.18;13.40;;;;;;;;;;5033344;28;20405;-66
2023/05/14 14:10:41;;;;;;;13.10;12.48;;;;;;;;;;5025594;28;20029;-66